Time;durP1;ratioP1;P1;durP2;ratioP2;P2;SDS_P1;SDS_P2;PMS_P1;PMS_P2;Temp;Humidity;BMP_temperature;BMP_pressure;BME280_temperature;BME280_humidity;BME280_pressure;Samples;Min_cycle;Max_cycle;Signal;HPM_P1;HPM_P2
2022/03/27 00:02:16;;;;;;;15.93;10.30;;;10.50;77.80;;;;;;10439697;28;20230;-69
2022/03/27 00:07:16;;;;;;;17.10;10.33;;;10.40;78.00;;;;;;10436215;28;20274;-68
2022/03/27 00:12:17;;;;;;;20.50;11.97;;;10.50;77.70;;;;;;10433184;28;20215;-68
2022/03/27 00:17:18;;;;;;;17.40;9.73;;;10.50;77.50;;;;;;10434434;28;20220;-68
2022/03/27 00:22:19;;;;;;;15.70;10.23;;;10.50;77.60;;;;;;10435396;28;20625;-70
2022/03/27 00:27:19;;;;;;;15.73;10.07;;;10.50;77.80;;;;;;10429046;28;20307;-68
2022/03/27 00:32:20;;;;;;;16.60;11.53;;;10.40;78.10;;;;;;10431428;28;20771;-67
2022/03/27 00:37:22;;;;;;;23.43;12.30;;;10.30;78.50;;;;;;10438455;28;20342;-69
2022/03/27 00:42:22;;;;;;;18.87;10.97;;;10.20;79.60;;;;;;10433691;28;20311;-68
2022/03/27 00:47:23;;;;;;;20.83;11.03;;;10.20;80.30;;;;;;10434330;28;20303;-68
2022/03/27 00:52:23;;;;;;;14.53;9.90;;;10.20;80.70;;;;;;10432396;28;20612;-68
2022/03/27 00:57:24;;;;;;;20.40;10.77;;;10.10;81.70;;;;;;10433027;28;20275;-68
2022/03/27 01:02:26;;;;;;;17.50;10.13;;;10.10;81.20;;;;;;10430888;28;20212;-67
2022/03/27 01:07:26;;;;;;;17.23;10.03;;;10.10;81.70;;;;;;10427604;28;20220;-69
2022/03/27 01:12:42;;;;;;;14.07;9.70;;;10.00;82.40;;;;;;10431468;28;20225;-67
2022/03/27 01:17:42;;;;;;;11.07;8.30;;;9.90;83.00;;;;;;10435372;28;20311;-68
2022/03/27 01:22:43;;;;;;;13.27;9.40;;;9.80;83.80;;;;;;10428703;28;20307;-69
2022/03/27 01:27:44;;;;;;;11.30;8.60;;;9.80;84.40;;;;;;10444944;28;20211;-69
2022/03/27 01:32:45;;;;;;;12.53;9.53;;;9.70;85.20;;;;;;10446308;28;20200;-68
2022/03/27 01:37:47;;;;;;;15.10;9.67;;;9.70;85.90;;;;;;10435803;28;20228;-67
2022/03/27 01:42:49;;;;;;;12.80;9.40;;;9.80;86.40;;;;;;10428948;28;20694;-69
2022/03/27 01:47:51;;;;;;;12.80;8.97;;;9.70;86.70;;;;;;10427589;28;20413;-67
2022/03/27 01:52:51;;;;;;;12.80;10.07;;;9.70;87.60;;;;;;10433180;28;20285;-68
2022/03/27 01:57:52;;;;;;;12.80;9.73;;;9.60;88.50;;;;;;10425909;28;20252;-68
2022/03/27 02:02:53;;;;;;;12.00;9.27;;;9.60;89.30;;;;;;10430290;28;20314;-70
2022/03/27 02:07:54;;;;;;;13.27;9.73;;;9.60;90.00;;;;;;10431939;28;20236;-70
2022/03/27 02:12:58;;;;;;;12.43;10.10;;;9.50;90.30;;;;;;10434864;28;20244;-71
2022/03/27 02:18:01;;;;;;;13.77;10.03;;;9.50;90.70;;;;;;10433671;28;20357;-70
2022/03/27 02:23:02;;;;;;;12.77;10.00;;;9.50;91.00;;;;;;10424923;28;20587;-70
2022/03/27 02:28:04;;;;;;;13.83;9.73;;;9.50;91.20;;;;;;10425630;28;20231;-71
2022/03/27 02:33:05;;;;;;;14.43;10.10;;;9.50;91.40;;;;;;10432457;28;20231;-71
2022/03/27 02:38:07;;;;;;;13.87;10.20;;;9.50;91.60;;;;;;10424689;28;20596;-71
2022/03/27 02:43:11;;;;;;;14.90;9.90;;;9.50;91.90;;;;;;10430379;28;20326;-70
2022/03/27 02:48:12;;;;;;;16.10;11.13;;;9.40;92.40;;;;;;10426872;28;20220;-70
2022/03/27 02:53:13;;;;;;;13.10;9.90;;;9.40;93.00;;;;;;10431142;28;20912;-70
2022/03/27 02:58:14;;;;;;;16.57;11.03;;;9.30;93.60;;;;;;10429354;28;20227;-70
2022/03/27 03:03:14;;;;;;;16.10;11.13;;;9.30;94.20;;;;;;10443494;28;20226;-71
2022/03/27 03:08:17;;;;;;;15.20;10.97;;;9.20;95.00;;;;;;10448504;28;20239;-70
2022/03/27 03:13:21;;;;;;;15.80;11.20;;;9.20;95.70;;;;;;10446486;28;20218;-69
2022/03/27 03:18:22;;;;;;;13.73;10.50;;;9.20;96.30;;;;;;10439464;28;20216;-70
2022/03/27 03:23:22;;;;;;;15.37;11.07;;;9.20;96.90;;;;;;10446543;28;20227;-69
2022/03/27 03:28:26;;;;;;;15.00;11.67;;;9.20;97.50;;;;;;10452062;28;20216;-69
2022/03/27 03:33:28;;;;;;;19.43;11.97;;;9.10;98.20;;;;;;10453177;28;20425;-69
2022/03/27 03:38:29;;;;;;;16.17;11.83;;;9.10;99.00;;;;;;10448502;28;20220;-69
2022/03/27 03:43:30;;;;;;;14.37;11.40;;;9.10;99.90;;;;;;10441644;28;20220;-69
2022/03/27 03:48:34;;;;;;;19.47;12.33;;;9.00;99.90;;;;;;10436776;28;20227;-69
2022/03/27 03:53:34;;;;;;;20.00;12.60;;;9.00;99.90;;;;;;10436139;28;20213;-69
2022/03/27 03:58:35;;;;;;;16.27;13.57;;;9.00;99.90;;;;;;10432554;28;20236;-69
2022/03/27 04:03:35;;;;;;;17.77;13.37;;;8.90;99.90;;;;;;10450660;28;20220;-69
2022/03/27 04:08:36;;;;;;;16.83;12.13;;;8.90;99.90;;;;;;10432044;28;20220;-70
2022/03/27 04:13:37;;;;;;;16.30;11.87;;;8.90;99.90;;;;;;10436539;28;20226;-69
2022/03/27 04:18:38;;;;;;;17.40;13.03;;;8.80;99.90;;;;;;10436271;28;20223;-69
2022/03/27 04:23:39;;;;;;;19.50;12.93;;;8.70;99.90;;;;;;10440955;28;20227;-69
2022/03/27 04:28:40;;;;;;;16.47;13.10;;;8.80;99.90;;;;;;10424052;28;20228;-68
2022/03/27 04:33:40;;;;;;;16.97;13.37;;;8.70;99.90;;;;;;10434418;28;20285;-69
2022/03/27 04:38:41;;;;;;;16.17;12.77;;;8.60;99.90;;;;;;10435271;28;20232;-69
2022/03/27 04:43:46;;;;;;;19.50;13.77;;;8.60;99.90;;;;;;10435498;28;20296;-69
2022/03/27 04:48:47;;;;;;;17.33;12.87;;;8.50;99.90;;;;;;10429398;28;20373;-69
2022/03/27 04:53:49;;;;;;;23.13;14.33;;;8.40;99.90;;;;;;10435382;28;20270;-68
2022/03/27 04:58:49;;;;;;;17.33;12.63;;;8.40;99.90;;;;;;10429270;28;20305;-69
2022/03/27 05:03:50;;;;;;;19.60;13.27;;;8.40;99.90;;;;;;10436132;28;20220;-70
2022/03/27 05:08:51;;;;;;;17.80;13.83;;;8.30;99.90;;;;;;10428326;28;20220;-69
2022/03/27 05:13:52;;;;;;;20.10;13.23;;;8.30;99.90;;;;;;10435139;28;20220;-68
2022/03/27 05:18:52;;;;;;;18.57;13.23;;;8.30;99.90;;;;;;10428460;28;20224;-68
2022/03/27 05:23:53;;;;;;;16.90;12.80;;;8.30;99.90;;;;;;10435206;28;20228;-68
2022/03/27 05:28:54;;;;;;;19.67;14.03;;;8.30;99.90;;;;;;10421527;28;20220;-69
2022/03/27 05:33:54;;;;;;;17.47;13.07;;;8.30;99.90;;;;;;10425862;28;20216;-68
2022/03/27 05:38:55;;;;;;;19.70;12.70;;;8.40;99.90;;;;;;10450780;28;20230;-68
2022/03/27 05:43:56;;;;;;;18.20;13.30;;;8.50;99.90;;;;;;10434895;28;20277;-68
2022/03/27 05:48:56;;;;;;;17.70;12.30;;;8.60;99.90;;;;;;10426676;28;20311;-69
2022/03/27 05:53:57;;;;;;;18.30;12.80;;;8.60;99.90;;;;;;10424440;28;20715;-69
2022/03/27 05:58:58;;;;;;;16.00;12.50;;;8.70;99.90;;;;;;10432630;28;20745;-69
2022/03/27 06:03:59;;;;;;;18.43;13.50;;;8.80;99.90;;;;;;10431547;28;20209;-68
2022/03/27 06:09:00;;;;;;;17.43;13.43;;;8.90;99.90;;;;;;10433386;28;20236;-67
2022/03/27 06:14:00;;;;;;;17.70;12.53;;;9.00;99.90;;;;;;10433059;28;20247;-68
2022/03/27 06:19:01;;;;;;;16.43;12.83;;;9.20;99.90;;;;;;10425062;28;20566;-67
2022/03/27 06:24:01;;;;;;;17.43;13.30;;;9.40;99.90;;;;;;10431377;28;20226;-68
2022/03/27 06:29:03;;;;;;;18.73;13.47;;;9.50;99.90;;;;;;10425043;28;20278;-70
2022/03/27 06:34:04;;;;;;;16.07;11.97;;;9.80;99.90;;;;;;10430691;28;20224;-70
2022/03/27 06:39:05;;;;;;;18.17;13.10;;;10.00;99.90;;;;;;10424203;28;20290;-69
2022/03/27 06:44:05;;;;;;;18.07;12.73;;;10.20;99.90;;;;;;10440714;28;20216;-69
2022/03/27 06:49:06;;;;;;;20.47;13.47;;;10.40;99.90;;;;;;10424005;28;20221;-70
2022/03/27 06:54:06;;;;;;;19.83;13.37;;;10.60;99.90;;;;;;10431337;28;20228;-70
2022/03/27 06:59:07;;;;;;;16.63;13.17;;;10.70;99.90;;;;;;10425443;28;20236;-70
2022/03/27 07:04:09;;;;;;;17.50;12.10;;;11.10;99.90;;;;;;10432246;28;20228;-70
2022/03/27 07:09:10;;;;;;;17.70;12.00;;;11.20;99.90;;;;;;10433049;28;20220;-72
2022/03/27 07:14:12;;;;;;;17.03;11.77;;;11.50;99.90;;;;;;10443577;28;20421;-70
2022/03/27 07:19:14;;;;;;;17.57;11.73;;;11.90;99.90;;;;;;10429855;28;20229;-71
2022/03/27 07:24:15;;;;;;;17.50;11.90;;;12.60;99.90;;;;;;10427262;28;20269;-74
2022/03/27 07:29:16;;;;;;;15.80;11.77;;;13.00;99.90;;;;;;10428661;28;20218;-71
2022/03/27 07:34:16;;;;;;;18.03;12.83;;;12.80;99.90;;;;;;10435337;28;20212;-70
2022/03/27 07:39:17;;;;;;;16.60;13.37;;;12.80;99.90;;;;;;10429982;28;20622;-70
2022/03/27 07:44:18;;;;;;;16.27;11.47;;;13.00;99.70;;;;;;10450123;28;20228;-70
2022/03/27 07:49:19;;;;;;;15.70;11.80;;;13.10;99.40;;;;;;10450927;28;20299;-70
2022/03/27 07:54:20;;;;;;;14.27;11.70;;;13.30;99.60;;;;;;10434467;28;20578;-71
2022/03/27 07:59:20;;;;;;;18.03;11.80;;;16.10;93.00;;;;;;10432317;28;20248;-72
2022/03/27 08:04:21;;;;;;;15.10;10.97;;;19.20;76.10;;;;;;10432275;28;20580;-73
2022/03/27 08:09:22;;;;;;;14.87;11.37;;;20.60;64.40;;;;;;10443713;28;20216;-72
2022/03/27 08:14:27;;;;;;;16.57;11.43;;;21.50;58.80;;;;;;10432624;28;20212;-73
2022/03/27 08:19:28;;;;;;;14.10;11.33;;;22.10;55.60;;;;;;10429089;28;20573;-74
2022/03/27 08:24:29;;;;;;;13.80;11.53;;;22.80;53.30;;;;;;10433533;28;20216;-72
2022/03/27 08:29:33;;;;;;;16.67;11.53;;;22.80;52.40;;;;;;10429023;28;20585;-73
2022/03/27 08:34:36;;;;;;;14.90;11.20;;;23.90;50.50;;;;;;10445553;28;20216;-73
2022/03/27 08:39:38;;;;;;;13.77;12.33;;;24.20;48.80;;;;;;10432371;28;20322;-73
2022/03/27 08:44:39;;;;;;;15.90;12.60;;;24.30;47.90;;;;;;10435260;28;20306;-72
2022/03/27 08:50:13;;;;;;;15.60;13.23;;;24.00;49.10;;;;;;10431678;28;20240;-72
2022/03/27 08:55:19;;;;;;;17.30;13.40;;;24.10;48.80;;;;;;10379975;28;20573;-72
2022/03/27 09:00:25;;;;;;;13.70;11.30;;;25.60;45.70;;;;;;10427824;28;20244;-73
2022/03/27 09:05:28;;;;;;;15.30;13.70;;;26.00;44.90;;;;;;10427967;28;20303;-76
2022/03/27 09:10:29;;;;;;;16.97;14.03;;;26.00;43.70;;;;;;10426336;28;20231;-74
2022/03/27 09:15:30;;;;;;;14.60;13.10;;;25.60;43.20;;;;;;10440148;28;20742;-73
2022/03/27 09:20:31;;;;;;;14.30;12.80;;;25.00;44.00;;;;;;10430317;28;20216;-73
2022/03/27 09:25:48;;;;;;;14.83;13.27;;;26.40;43.20;;;;;;10433589;28;20220;-73
2022/03/27 09:30:49;;;;;;;15.23;13.63;;;26.10;43.20;;;;;;10424697;28;20227;-73
2022/03/27 09:36:07;;;;;;;15.53;12.77;;;27.40;41.40;;;;;;10433775;28;20239;-72
2022/03/27 09:41:38;;;;;;;14.90;13.30;;;27.40;40.60;;;;;;10426901;28;20691;-72
2022/03/27 09:46:58;;;;;;;14.63;13.23;;;27.50;40.40;;;;;;10442333;28;20841;-73
2022/03/27 09:52:01;;;;;;;14.23;11.23;;;27.50;39.00;;;;;;10426486;28;20588;-73
2022/03/27 09:57:25;;;;;;;11.97;10.77;;;29.60;38.20;;;;;;10433438;28;20801;-74
2022/03/27 10:02:30;;;;;;;14.07;12.67;;;30.90;35.60;;;;;;10434197;28;20223;-73
2022/03/27 10:07:43;;;;;;;15.27;12.67;;;30.70;33.30;;;;;;10428175;28;20299;-73
2022/03/27 10:12:48;;;;;;;15.47;13.47;;;29.20;35.20;;;;;;10431925;28;20763;-72
2022/03/27 10:17:55;;;;;;;13.93;12.53;;;29.30;34.80;;;;;;10431615;28;20224;-73
2022/03/27 10:23:09;;;;;;;13.77;12.37;;;29.50;34.70;;;;;;10426602;28;20215;-73
2022/03/27 10:28:11;;;;;;;14.87;13.27;;;28.80;33.40;;;;;;10435885;28;20307;-73
2022/03/27 10:33:12;;;;;;;14.20;12.00;;;29.50;34.10;;;;;;10431454;28;20215;-73
2022/03/27 10:38:34;;;;;;;16.53;13.03;;;29.80;32.40;;;;;;10426545;28;20635;-73
2022/03/27 10:44:05;;;;;;;14.03;11.47;;;30.20;33.10;;;;;;10428006;28;20216;-73
2022/03/27 10:49:15;;;;;;;15.73;11.90;;;30.40;31.80;;;;;;10426098;28;20258;-73
2022/03/27 10:54:20;;;;;;;12.30;8.53;;;30.60;31.10;;;;;;10430331;28;20223;-73
2022/03/27 10:59:24;;;;;;;10.80;9.67;;;31.50;29.80;;;;;;10426166;28;20219;-73
2022/03/27 11:04:43;;;;;;;10.00;8.93;;;34.00;28.40;;;;;;10432442;28;20302;-73
2022/03/27 11:09:45;;;;;;;9.07;7.03;;;33.40;28.10;;;;;;10426080;28;20224;-73
2022/03/27 11:15:02;;;;;;;11.60;7.30;;;34.30;28.00;;;;;;10431778;28;20627;-73
2022/03/27 11:20:32;;;;;;;9.57;7.20;;;33.60;27.70;;;;;;10432702;28;20227;-74
2022/03/27 11:25:38;;;;;;;8.90;7.53;;;32.40;28.50;;;;;;10444944;28;20208;-73
2022/03/27 11:30:48;;;;;;;12.30;9.40;;;29.60;31.20;;;;;;10425069;28;20205;-72
2022/03/27 11:36:11;;;;;;;6.67;5.43;;;26.00;37.20;;;;;;10430343;28;20289;-72
2022/03/27 11:41:29;;;;;;;8.70;7.80;;;23.90;38.90;;;;;;10433622;28;20223;-73
2022/03/27 11:46:29;;;;;;;10.40;9.03;;;22.50;44.30;;;;;;10427836;28;20311;-72
2022/03/27 11:51:33;;;;;;;9.80;7.63;;;22.00;45.60;;;;;;10431791;28;20318;-72
2022/03/27 11:56:34;;;;;;;13.17;8.07;;;22.00;45.70;;;;;;10435411;28;20232;-73
2022/03/27 12:01:36;;;;;;;10.93;7.80;;;22.00;46.10;;;;;;10443026;28;20221;-72
2022/03/27 12:06:37;;;;;;;9.67;7.67;;;21.50;47.10;;;;;;10436694;28;20223;-72
2022/03/27 12:11:38;;;;;;;10.70;8.70;;;21.10;48.10;;;;;;10432977;28;20227;-73
2022/03/27 12:16:46;;;;;;;10.60;7.60;;;21.00;48.50;;;;;;10444571;28;20212;-73
2022/03/27 12:21:46;;;;;;;13.63;8.77;;;20.90;48.70;;;;;;10424698;28;20612;-72
2022/03/27 12:32:14;;;;;;;11.50;8.47;;;20.80;50.00;;;;;;10434299;28;20217;-71
2022/03/27 12:37:19;;;;;;;11.77;9.93;;;21.00;49.70;;;;;;10439861;28;20260;-72
2022/03/27 12:42:35;;;;;;;12.93;9.33;;;20.80;50.70;;;;;;10432665;28;20216;-72
2022/03/27 12:47:45;;;;;;;11.17;9.40;;;20.60;50.60;;;;;;10429804;28;20694;-73
2022/03/27 12:52:54;;;;;;;13.30;8.83;;;20.80;50.30;;;;;;10437168;28;20227;-72
2022/03/27 12:57:57;;;;;;;16.00;9.83;;;20.50;50.90;;;;;;10437986;28;20728;-72
2022/03/27 13:03:17;;;;;;;11.80;8.27;;;20.50;51.10;;;;;;10427455;28;20239;-73
2022/03/27 13:08:32;;;;;;;11.33;7.63;;;20.80;50.60;;;;;;10432388;28;20216;-73
2022/03/27 13:13:38;;;;;;;11.47;8.23;;;20.90;50.90;;;;;;10432796;28;20591;-72
2022/03/27 13:18:41;;;;;;;11.17;6.93;;;20.90;50.90;;;;;;10431177;28;20225;-73
2022/03/27 13:23:41;;;;;;;11.10;7.10;;;20.70;50.80;;;;;;10433470;28;20212;-72
2022/03/27 13:28:42;;;;;;;9.07;7.53;;;20.60;51.40;;;;;;10429100;28;20216;-72
2022/03/27 13:33:43;;;;;;;10.20;8.13;;;20.50;51.70;;;;;;10435079;28;20215;-72
2022/03/27 13:38:44;;;;;;;8.33;6.60;;;20.40;52.20;;;;;;10428220;28;20812;-74
2022/03/27 13:43:45;;;;;;;11.20;8.40;;;20.40;52.80;;;;;;10432801;28;20223;-73
2022/03/27 13:48:46;;;;;;;10.83;8.33;;;20.30;52.90;;;;;;10442678;28;20250;-72
2022/03/27 13:53:47;;;;;;;9.10;7.43;;;20.30;53.10;;;;;;10428830;28;20310;-72
2022/03/27 13:58:47;;;;;;;9.93;7.03;;;20.30;53.30;;;;;;10435122;28;20752;-72
2022/03/27 14:03:49;;;;;;;11.00;9.03;;;20.30;53.10;;;;;;10435502;28;20220;-72
2022/03/27 14:08:50;;;;;;;10.20;8.03;;;20.30;53.30;;;;;;10443613;28;20217;-72
2022/03/27 14:13:50;;;;;;;9.20;7.70;;;20.20;53.30;;;;;;10432289;28;20219;-72
2022/03/27 14:18:52;;;;;;;11.13;9.03;;;20.40;53.80;;;;;;10425508;28;20231;-73
2022/03/27 14:23:52;;;;;;;11.53;8.40;;;20.40;53.80;;;;;;10435566;28;20304;-72
2022/03/27 14:28:53;;;;;;;9.83;7.90;;;20.30;53.80;;;;;;10426214;28;20318;-72
2022/03/27 14:33:54;;;;;;;9.83;7.90;;;20.30;54.00;;;;;;10434250;28;20246;-72
2022/03/27 14:38:55;;;;;;;9.67;8.30;;;20.40;53.80;;;;;;10424761;28;20240;-72
2022/03/27 14:43:55;;;;;;;9.70;7.73;;;20.20;53.90;;;;;;10432872;28;20227;-72
2022/03/27 14:48:57;;;;;;;11.43;7.37;;;20.30;54.20;;;;;;10424929;28;20223;-71
2022/03/27 14:59:16;;;;;;;12.30;7.60;;;20.40;54.60;;;;;;10434782;28;20310;-72
2022/03/27 15:04:20;;;;;;;12.50;9.20;;;20.40;54.20;;;;;;10430973;28;20315;-72
2022/03/27 15:09:21;;;;;;;11.17;7.30;;;20.40;54.20;;;;;;10427687;28;20228;-73
2022/03/27 15:14:21;;;;;;;10.17;7.13;;;20.30;54.20;;;;;;10429441;28;20229;-72
2022/03/27 15:19:22;;;;;;;8.83;7.23;;;20.30;54.30;;;;;;10426491;28;20369;-72
2022/03/27 15:24:22;;;;;;;9.50;7.60;;;20.20;54.20;;;;;;10430154;28;20259;-72
2022/03/27 15:29:23;;;;;;;12.10;7.80;;;20.10;54.30;;;;;;10436132;28;20223;-73
2022/03/27 15:34:23;;;;;;;9.50;7.20;;;20.20;54.50;;;;;;10435996;28;20305;-73
2022/03/27 15:39:24;;;;;;;8.90;7.40;;;20.10;54.70;;;;;;10435907;28;20698;-72
2022/03/27 15:44:25;;;;;;;8.80;6.63;;;20.00;54.70;;;;;;10447718;28;20729;-72
2022/03/27 15:49:26;;;;;;;8.87;7.97;;;20.00;55.40;;;;;;10436272;28;20220;-72
2022/03/27 15:54:26;;;;;;;9.37;6.57;;;19.90;55.30;;;;;;10436375;28;20278;-71
2022/03/27 15:59:28;;;;;;;7.80;5.97;;;19.80;55.40;;;;;;10433917;28;20286;-72
2022/03/27 16:04:28;;;;;;;9.43;6.77;;;19.80;55.20;;;;;;10433457;28;20227;-72
2022/03/27 16:09:29;;;;;;;9.83;6.43;;;19.70;55.80;;;;;;10426227;28;20228;-72
2022/03/27 16:14:29;;;;;;;7.40;5.87;;;19.70;56.10;;;;;;10438867;28;20221;-73
2022/03/27 16:19:30;;;;;;;6.30;5.40;;;19.60;55.70;;;;;;10433773;28;20224;-72
2022/03/27 16:24:31;;;;;;;5.70;4.67;;;19.50;55.80;;;;;;10438563;28;20724;-72
2022/03/27 16:29:31;;;;;;;9.23;6.70;;;19.40;55.90;;;;;;10432463;28;20268;-72
2022/03/27 16:34:32;;;;;;;9.07;6.83;;;19.30;57.00;;;;;;10434093;28;20224;-72
2022/03/27 16:39:33;;;;;;;9.00;7.27;;;19.20;57.40;;;;;;10432245;28;20225;-72
2022/03/27 16:44:34;;;;;;;10.20;7.67;;;19.10;58.30;;;;;;10432773;28;20220;-72
2022/03/27 16:49:37;;;;;;;9.67;8.07;;;19.10;59.00;;;;;;10431830;28;20251;-72
2022/03/27 16:54:38;;;;;;;12.57;7.90;;;18.90;59.20;;;;;;10435940;28;20223;-72
2022/03/27 16:59:39;;;;;;;10.50;7.90;;;18.90;59.50;;;;;;10427652;28;20692;-72
2022/03/27 17:04:39;;;;;;;11.47;7.20;;;18.80;59.80;;;;;;10439033;28;20296;-72
2022/03/27 17:09:40;;;;;;;9.53;7.27;;;18.80;60.20;;;;;;10428937;28;20593;-73
2022/03/27 17:14:41;;;;;;;11.77;7.03;;;18.60;60.40;;;;;;10420115;28;20915;-73
2022/03/27 17:19:41;;;;;;;8.97;7.27;;;18.50;60.70;;;;;;10434280;28;20235;-72
2022/03/27 17:24:43;;;;;;;10.43;6.90;;;18.40;61.40;;;;;;10434269;28;20296;-72
2022/03/27 17:29:45;;;;;;;11.77;7.17;;;18.20;62.30;;;;;;10434121;28;20315;-73
2022/03/27 17:34:46;;;;;;;9.70;6.40;;;18.10;63.00;;;;;;10434953;28;20331;-73
2022/03/27 17:39:47;;;;;;;11.20;7.60;;;18.00;64.10;;;;;;10428359;28;20438;-72
2022/03/27 17:44:48;;;;;;;8.07;7.03;;;17.90;66.40;;;;;;10439345;28;20231;-73
2022/03/27 17:49:49;;;;;;;8.43;6.97;;;17.80;67.40;;;;;;10433315;28;20249;-73
2022/03/27 17:54:50;;;;;;;8.67;6.97;;;17.60;68.40;;;;;;10425153;28;20222;-73
2022/03/27 17:59:51;;;;;;;7.50;6.40;;;17.50;69.40;;;;;;10426250;28;20227;-72
2022/03/27 18:04:52;;;;;;;11.90;7.37;;;17.30;70.10;;;;;;10434539;28;20219;-73
2022/03/27 18:09:53;;;;;;;7.70;6.90;;;17.20;70.80;;;;;;10436835;28;20223;-71
2022/03/27 18:14:54;;;;;;;10.67;6.50;;;17.10;71.40;;;;;;10441749;28;20313;-73
2022/03/27 18:19:54;;;;;;;10.63;6.97;;;17.00;72.00;;;;;;10432134;28;20336;-72
2022/03/27 18:24:55;;;;;;;12.67;7.03;;;16.90;73.40;;;;;;10433955;28;20220;-72
2022/03/27 18:29:56;;;;;;;8.33;6.93;;;16.80;73.30;;;;;;10432843;28;20226;-74
2022/03/27 18:34:56;;;;;;;7.90;6.50;;;16.70;73.90;;;;;;10420077;28;20228;-72
2022/03/27 18:39:57;;;;;;;7.63;6.50;;;16.60;74.50;;;;;;10431876;28;20658;-72
2022/03/27 18:45:00;;;;;;;9.80;6.43;;;16.50;75.50;;;;;;10418369;28;20322;-73
2022/03/27 18:50:01;;;;;;;10.90;6.13;;;16.40;76.10;;;;;;10424927;28;20226;-72
2022/03/27 18:55:02;;;;;;;10.93;5.77;;;16.30;76.80;;;;;;10431804;28;20224;-71
2022/03/27 19:00:04;;;;;;;8.97;6.70;;;16.20;77.40;;;;;;10437642;28;20574;-73
2022/03/27 19:05:05;;;;;;;9.20;6.00;;;16.10;78.00;;;;;;10431689;28;20222;-74
2022/03/27 19:10:06;;;;;;;7.13;6.03;;;16.00;78.80;;;;;;10425488;28;20204;-71
2022/03/27 19:15:09;;;;;;;7.83;6.23;;;16.00;79.40;;;;;;10433356;28;20210;-72
2022/03/27 19:20:10;;;;;;;7.43;6.20;;;15.90;80.80;;;;;;10425982;28;20217;-72
2022/03/27 19:25:11;;;;;;;8.67;6.07;;;15.80;80.70;;;;;;10426388;28;20222;-75
2022/03/27 19:30:12;;;;;;;13.17;5.97;;;15.70;81.40;;;;;;10431983;28;20198;-73
2022/03/27 19:35:13;;;;;;;7.57;6.10;;;15.60;82.10;;;;;;10425540;28;20215;-73
2022/03/27 19:40:14;;;;;;;9.60;6.20;;;15.40;82.90;;;;;;10426522;28;20221;-71
2022/03/27 19:45:14;;;;;;;7.47;6.00;;;15.30;84.00;;;;;;10417506;28;20225;-71
2022/03/27 19:50:15;;;;;;;6.83;5.80;;;15.20;84.90;;;;;;10426231;28;20196;-72
2022/03/27 19:55:17;;;;;;;8.20;5.53;;;15.20;85.90;;;;;;10426987;28;20280;-71
2022/03/27 20:00:19;;;;;;;6.20;5.53;;;15.10;86.90;;;;;;10423578;28;20220;-72
2022/03/27 20:05:22;;;;;;;8.17;6.23;;;15.10;87.60;;;;;;10429858;28;20193;-73
2022/03/27 20:10:22;;;;;;;8.40;6.33;;;15.00;88.70;;;;;;10427131;28;20180;-71
2022/03/27 20:15:23;;;;;;;8.83;6.00;;;14.90;90.10;;;;;;10432263;28;20191;-71
2022/03/27 20:20:24;;;;;;;8.33;6.27;;;14.80;90.80;;;;;;10431354;28;20623;-72
2022/03/27 20:25:25;;;;;;;8.37;7.07;;;14.70;91.60;;;;;;10436881;28;20223;-71
2022/03/27 20:30:26;;;;;;;9.20;6.93;;;14.50;92.80;;;;;;10434580;28;20595;-70
2022/03/27 20:35:27;;;;;;;13.63;7.40;;;14.40;94.10;;;;;;10435903;28;20219;-71
2022/03/27 20:40:27;;;;;;;13.00;7.87;;;14.40;95.70;;;;;;10436789;28;20657;-71
2022/03/27 20:45:28;;;;;;;11.07;7.20;;;14.40;97.00;;;;;;10431927;28;20220;-70
2022/03/27 20:50:29;;;;;;;9.27;7.80;;;14.30;98.40;;;;;;10433009;28;20216;-73
2022/03/27 20:55:30;;;;;;;15.87;8.80;;;14.30;99.40;;;;;;10432411;28;20223;-70
2022/03/27 21:00:30;;;;;;;16.50;9.10;;;14.30;99.90;;;;;;10434493;28;20675;-70
2022/03/27 21:05:34;;;;;;;17.47;9.50;;;14.20;99.90;;;;;;10426619;28;20227;-69
2022/03/27 21:10:35;;;;;;;16.83;8.70;;;14.20;99.90;;;;;;10439290;28;20299;-70
2022/03/27 21:15:38;;;;;;;15.70;8.20;;;14.10;99.90;;;;;;10432603;28;20216;-70
2022/03/27 21:20:38;;;;;;;17.93;9.63;;;14.10;99.90;;;;;;10435035;28;20212;-69
2022/03/27 21:25:43;;;;;;;17.23;8.80;;;14.00;99.90;;;;;;10431039;28;20682;-69
2022/03/27 21:30:44;;;;;;;13.33;7.40;;;13.90;99.90;;;;;;10435514;28;20212;-71
2022/03/27 21:35:45;;;;;;;13.03;6.80;;;13.80;99.90;;;;;;10447043;28;20317;-70
2022/03/27 21:40:46;;;;;;;9.27;6.60;;;13.80;99.90;;;;;;10436962;28;20705;-70
2022/03/27 21:45:47;;;;;;;8.73;6.00;;;13.80;99.90;;;;;;10426613;28;20270;-70
2022/03/27 21:50:48;;;;;;;8.37;6.13;;;13.70;99.90;;;;;;10433076;28;20200;-72
2022/03/27 21:55:49;;;;;;;6.07;5.20;;;13.70;99.90;;;;;;10432177;28;20236;-70
2022/03/27 22:00:49;;;;;;;7.23;5.57;;;13.60;99.90;;;;;;10435371;28;20909;-70
2022/03/27 22:05:50;;;;;;;8.70;5.80;;;13.60;99.90;;;;;;10429816;28;20298;-70
2022/03/27 22:10:52;;;;;;;6.67;5.60;;;13.50;99.90;;;;;;10428536;28;20217;-70
2022/03/27 22:15:53;;;;;;;6.17;5.57;;;13.50;99.90;;;;;;10435184;28;20228;-70
2022/03/27 22:20:54;;;;;;;6.63;5.47;;;13.30;99.90;;;;;;10423868;28;20219;-69
2022/03/27 22:25:56;;;;;;;7.67;6.30;;;13.30;99.90;;;;;;10441816;28;20227;-71
2022/03/27 22:30:59;;;;;;;7.47;6.00;;;13.20;99.90;;;;;;10419307;28;20220;-70
2022/03/27 22:36:04;;;;;;;6.87;6.00;;;13.20;99.90;;;;;;10425306;28;20282;-71
2022/03/27 22:41:05;;;;;;;7.03;6.07;;;13.10;99.90;;;;;;10440585;28;20279;-70
2022/03/27 22:46:06;;;;;;;6.37;5.73;;;13.00;99.90;;;;;;10427042;28;20219;-70
2022/03/27 22:51:07;;;;;;;8.30;6.80;;;12.90;99.90;;;;;;10433043;28;20239;-69
2022/03/27 22:56:07;;;;;;;6.60;5.90;;;12.80;99.90;;;;;;10425899;28;20239;-69
2022/03/27 23:01:09;;;;;;;10.57;7.00;;;12.70;99.90;;;;;;10432633;28;20215;-69
2022/03/27 23:06:09;;;;;;;7.97;6.23;;;12.50;99.90;;;;;;10434388;28;20648;-69
2022/03/27 23:11:14;;;;;;;9.23;6.83;;;12.50;99.90;;;;;;10432539;28;20234;-69
2022/03/27 23:16:16;;;;;;;7.30;6.10;;;12.40;99.90;;;;;;10426650;28;20244;-69
2022/03/27 23:21:17;;;;;;;7.10;6.03;;;12.30;99.90;;;;;;10431305;28;20212;-69
2022/03/27 23:26:18;;;;;;;7.07;6.17;;;12.20;99.90;;;;;;10428409;28;20586;-70
2022/03/27 23:31:19;;;;;;;9.67;5.90;;;12.10;99.90;;;;;;10433385;28;20769;-71
2022/03/27 23:36:19;;;;;;;9.17;6.80;;;12.00;99.90;;;;;;10423761;28;20229;-70
2022/03/27 23:41:20;;;;;;;10.23;6.40;;;12.10;99.90;;;;;;10429891;28;20216;-70
2022/03/27 23:46:21;;;;;;;8.07;6.43;;;12.00;99.90;;;;;;10429125;28;20585;-69
2022/03/27 23:51:24;;;;;;;8.13;6.57;;;12.00;99.90;;;;;;10431532;28;20220;-70
2022/03/27 23:56:25;;;;;;;9.60;6.53;;;12.00;99.90;;;;;;10435237;28;20237;-72
